Atyray, Kazakhstan

9:17 PM AQTT on August 30, 2015 (GMT +0500)
Atyrau | | Change Station
CLOSE
Current Station
Airport
Location: Atyrau,
Elevation: -72 ft
Nearby Weather Stations

Elev -72 ft 47.12 °N, 51.83 °E | Updated 17 minutes ago

Mostly Cloudy
Mostly Cloudy
66 °F
Feels Like 66 °F
N
4
Wind Variable Wind from West

Today
High -- | Low -- °F
--% Chance of Precip.
Yesterday
High -- | Low -- °F
Precip. -- in
6:48 AM 8:17 PM
Full, 99% visible
Pressure 29.80 in
Visibility 6.2 miles
Clouds Scattered Clouds 3300 ft
Mostly Cloudy 12000 ft
Dew Point 57 °F
Humidity 73%
Rainfall 0.00 in
Snow Depth Not available.
UV 0 out of 12
Pollen Not available.
Air Quality Not available.
Flu Activity Not available.
METAR UATG 301600Z 27002MPS 9999 SCT033CB BKN120 19/14 Q1009 R32/29//60 NOSIG RMK QFE759/1012
Pressure 29.80 in
Visibility 6.2 miles
Clouds Scattered Clouds 3300 ft
Mostly Cloudy 12000 ft
Dew Point 57 °F
Humidity 73%
Rainfall 0.00 in
Snow Depth Not available.
UV 0 out of 12
Pollen Not available.
Air Quality Not available.
Flu Activity Not available.
METAR UATG 301600Z 27002MPS 9999 SCT033CB BKN120 19/14 Q1009 R32/29//60 NOSIG RMK QFE759/1012

10-Day Weather Forecast

×

Almanac

Astronomy

Aug. 30, 2015 Rise Set
Actual Time
Civil Twilight
Nautical Twilight
Astronomical Twilight
Moon
Length of Visible Light
Length of Day
Tomorrow will be .
, % of the Moon is Illuminated

Today's Extremes

Country Highs Country Lows

Community

WunderPhotos

Upload Photos

1,851,003 photos uploaded!

WunderBlogs® & News

Nearby

Air Quality

  Air Quality AQ Index Pollutant
Not available.

Snow Depth

Station Depth Elevation

Earthquake Activity

City Distance Mag. Time & Date
Minimum magnitude displayed is 2.5.

Coastal Water Temperatures

Place Temperature

Stations

Nearby Weather Stations

Station Location Temp. Windchill Dew Point Humidity Wind Precip. Elev Updated Type